sensor_id;sensor_type;location;lat;lon;timestamp;P1;durP1;ratioP1;P2;durP2;ratioP2
17796;SDS011;55596;53.554;9.916;2022-11-20T00:01:35;5.97;;;3.10;;
17796;SDS011;55596;53.554;9.916;2022-11-20T00:04:02;4.13;;;2.90;;
17796;SDS011;55596;53.554;9.916;2022-11-20T00:06:30;4.33;;;3.00;;
17796;SDS011;55596;53.554;9.916;2022-11-20T00:08:58;5.23;;;2.93;;
17796;SDS011;55596;53.554;9.916;2022-11-20T00:11:26;10.30;;;3.20;;
17796;SDS011;55596;53.554;9.916;2022-11-20T00:13:55;4.23;;;2.70;;
17796;SDS011;55596;53.554;9.916;2022-11-20T00:16:25;6.30;;;3.00;;
17796;SDS011;55596;53.554;9.916;2022-11-20T00:18:54;6.67;;;2.50;;
17796;SDS011;55596;53.554;9.916;2022-11-20T00:21:21;4.27;;;2.93;;
17796;SDS011;55596;53.554;9.916;2022-11-20T00:23:50;4.23;;;3.17;;
17796;SDS011;55596;53.554;9.916;2022-11-20T00:26:18;6.43;;;3.23;;
17796;SDS011;55596;53.554;9.916;2022-11-20T00:28:48;7.20;;;3.10;;
17796;SDS011;55596;53.554;9.916;2022-11-20T00:31:16;4.83;;;3.27;;
17796;SDS011;55596;53.554;9.916;2022-11-20T00:33:44;4.63;;;3.30;;
17796;SDS011;55596;53.554;9.916;2022-11-20T00:36:13;5.23;;;3.17;;
17796;SDS011;55596;53.554;9.916;2022-11-20T00:38:41;6.10;;;3.20;;
17796;SDS011;55596;53.554;9.916;2022-11-20T00:41:09;4.33;;;3.07;;
17796;SDS011;55596;53.554;9.916;2022-11-20T00:43:37;5.87;;;3.00;;
17796;SDS011;55596;53.554;9.916;2022-11-20T00:46:05;6.23;;;3.23;;
17796;SDS011;55596;53.554;9.916;2022-11-20T00:48:33;7.17;;;3.60;;
17796;SDS011;55596;53.554;9.916;2022-11-20T00:51:00;5.97;;;3.57;;
17796;SDS011;55596;53.554;9.916;2022-11-20T00:53:28;4.27;;;3.37;;
17796;SDS011;55596;53.554;9.916;2022-11-20T00:55:56;4.93;;;3.33;;
17796;SDS011;55596;53.554;9.916;2022-11-20T00:58:28;5.37;;;3.57;;
17796;SDS011;55596;53.554;9.916;2022-11-20T01:00:59;6.33;;;3.40;;
17796;SDS011;55596;53.554;9.916;2022-11-20T01:03:27;4.77;;;3.40;;
17796;SDS011;55596;53.554;9.916;2022-11-20T01:05:59;5.10;;;3.43;;
17796;SDS011;55596;53.554;9.916;2022-11-20T01:08:30;4.57;;;3.17;;
17796;SDS011;55596;53.554;9.916;2022-11-20T01:11:00;5.40;;;3.33;;
17796;SDS011;55596;53.554;9.916;2022-11-20T01:13:29;4.40;;;3.33;;
17796;SDS011;55596;53.554;9.916;2022-11-20T01:16:06;5.50;;;3.57;;
17796;SDS011;55596;53.554;9.916;2022-11-20T01:18:35;4.43;;;3.27;;
17796;SDS011;55596;53.554;9.916;2022-11-20T01:21:03;5.40;;;3.60;;
17796;SDS011;55596;53.554;9.916;2022-11-20T01:23:33;6.10;;;3.50;;
17796;SDS011;55596;53.554;9.916;2022-11-20T01:26:01;5.50;;;3.90;;
17796;SDS011;55596;53.554;9.916;2022-11-20T01:28:29;6.00;;;3.37;;
17796;SDS011;55596;53.554;9.916;2022-11-20T01:30:57;4.00;;;3.27;;
17796;SDS011;55596;53.554;9.916;2022-11-20T01:33:24;5.77;;;3.37;;
17796;SDS011;55596;53.554;9.916;2022-11-20T01:35:51;3.20;;;2.87;;
17796;SDS011;55596;53.554;9.916;2022-11-20T01:38:18;5.77;;;3.10;;
17796;SDS011;55596;53.554;9.916;2022-11-20T01:40:54;5.30;;;3.63;;
17796;SDS011;55596;53.554;9.916;2022-11-20T01:43:22;5.27;;;3.50;;
17796;SDS011;55596;53.554;9.916;2022-11-20T01:46:05;4.30;;;3.30;;
17796;SDS011;55596;53.554;9.916;2022-11-20T01:48:38;6.80;;;3.33;;
17796;SDS011;55596;53.554;9.916;2022-11-20T01:51:12;6.20;;;2.97;;
17796;SDS011;55596;53.554;9.916;2022-11-20T01:53:50;4.63;;;3.17;;
17796;SDS011;55596;53.554;9.916;2022-11-20T01:56:20;5.67;;;3.60;;
17796;SDS011;55596;53.554;9.916;2022-11-20T01:58:49;4.10;;;3.10;;
17796;SDS011;55596;53.554;9.916;2022-11-20T02:01:20;4.07;;;3.47;;
17796;SDS011;55596;53.554;9.916;2022-11-20T02:03:47;5.43;;;3.67;;
17796;SDS011;55596;53.554;9.916;2022-11-20T02:06:17;5.37;;;3.57;;
17796;SDS011;55596;53.554;9.916;2022-11-20T02:08:49;4.30;;;3.30;;
17796;SDS011;55596;53.554;9.916;2022-11-20T02:11:16;4.13;;;3.73;;
17796;SDS011;55596;53.554;9.916;2022-11-20T02:13:45;6.77;;;3.80;;
17796;SDS011;55596;53.554;9.916;2022-11-20T02:16:12;6.53;;;3.67;;
17796;SDS011;55596;53.554;9.916;2022-11-20T02:18:43;5.30;;;3.63;;
17796;SDS011;55596;53.554;9.916;2022-11-20T02:21:13;4.73;;;3.80;;
17796;SDS011;55596;53.554;9.916;2022-11-20T02:23:55;5.87;;;3.57;;
17796;SDS011;55596;53.554;9.916;2022-11-20T02:26:27;9.93;;;3.63;;
17796;SDS011;55596;53.554;9.916;2022-11-20T02:28:56;5.57;;;4.00;;
17796;SDS011;55596;53.554;9.916;2022-11-20T02:31:26;9.50;;;3.70;;
17796;SDS011;55596;53.554;9.916;2022-11-20T02:33:56;8.10;;;4.13;;
17796;SDS011;55596;53.554;9.916;2022-11-20T02:36:24;5.13;;;3.70;;
17796;SDS011;55596;53.554;9.916;2022-11-20T02:38:55;5.33;;;3.70;;
17796;SDS011;55596;53.554;9.916;2022-11-20T02:41:22;6.70;;;3.77;;
17796;SDS011;55596;53.554;9.916;2022-11-20T02:43:57;6.57;;;4.07;;
17796;SDS011;55596;53.554;9.916;2022-11-20T02:46:24;6.03;;;4.27;;
17796;SDS011;55596;53.554;9.916;2022-11-20T02:48:51;5.10;;;4.20;;
17796;SDS011;55596;53.554;9.916;2022-11-20T02:51:18;5.87;;;4.00;;
17796;SDS011;55596;53.554;9.916;2022-11-20T02:53:45;6.57;;;3.97;;
17796;SDS011;55596;53.554;9.916;2022-11-20T02:56:13;5.20;;;4.17;;
17796;SDS011;55596;53.554;9.916;2022-11-20T02:58:40;5.93;;;4.33;;
17796;SDS011;55596;53.554;9.916;2022-11-20T03:01:07;6.80;;;4.50;;
17796;SDS011;55596;53.554;9.916;2022-11-20T03:03:34;6.67;;;4.30;;
17796;SDS011;55596;53.554;9.916;2022-11-20T03:06:01;5.67;;;4.10;;
17796;SDS011;55596;53.554;9.916;2022-11-20T03:08:28;5.20;;;4.10;;
17796;SDS011;55596;53.554;9.916;2022-11-20T03:10:55;7.50;;;4.30;;
17796;SDS011;55596;53.554;9.916;2022-11-20T03:13:24;6.57;;;4.60;;
17796;SDS011;55596;53.554;9.916;2022-11-20T03:15:51;5.33;;;4.10;;
17796;SDS011;55596;53.554;9.916;2022-11-20T03:18:18;6.83;;;4.80;;
17796;SDS011;55596;53.554;9.916;2022-11-20T03:20:45;7.40;;;4.30;;
17796;SDS011;55596;53.554;9.916;2022-11-20T03:23:12;5.60;;;4.30;;
17796;SDS011;55596;53.554;9.916;2022-11-20T03:25:39;8.60;;;4.17;;
17796;SDS011;55596;53.554;9.916;2022-11-20T03:28:05;5.07;;;4.00;;
17796;SDS011;55596;53.554;9.916;2022-11-20T03:30:34;9.10;;;4.53;;
17796;SDS011;55596;53.554;9.916;2022-11-20T03:33:01;8.87;;;5.30;;
17796;SDS011;55596;53.554;9.916;2022-11-20T03:35:28;5.87;;;3.93;;
17796;SDS011;55596;53.554;9.916;2022-11-20T03:37:55;4.23;;;3.80;;
17796;SDS011;55596;53.554;9.916;2022-11-20T03:40:23;7.80;;;4.83;;
17796;SDS011;55596;53.554;9.916;2022-11-20T03:42:50;5.97;;;4.43;;
17796;SDS011;55596;53.554;9.916;2022-11-20T03:45:17;10.30;;;4.87;;
17796;SDS011;55596;53.554;9.916;2022-11-20T03:47:45;5.90;;;4.33;;
17796;SDS011;55596;53.554;9.916;2022-11-20T03:50:13;5.93;;;4.40;;
17796;SDS011;55596;53.554;9.916;2022-11-20T03:52:41;5.03;;;4.23;;
17796;SDS011;55596;53.554;9.916;2022-11-20T03:55:08;5.70;;;4.23;;
17796;SDS011;55596;53.554;9.916;2022-11-20T03:57:35;5.20;;;4.00;;
17796;SDS011;55596;53.554;9.916;2022-11-20T04:00:02;5.70;;;4.20;;
17796;SDS011;55596;53.554;9.916;2022-11-20T04:02:30;5.23;;;4.00;;
17796;SDS011;55596;53.554;9.916;2022-11-20T04:04:58;4.70;;;4.10;;
17796;SDS011;55596;53.554;9.916;2022-11-20T04:07:25;4.70;;;4.00;;
17796;SDS011;55596;53.554;9.916;2022-11-20T04:09:52;7.20;;;4.17;;
17796;SDS011;55596;53.554;9.916;2022-11-20T04:12:19;5.57;;;4.13;;
17796;SDS011;55596;53.554;9.916;2022-11-20T04:14:46;8.63;;;4.63;;
17796;SDS011;55596;53.554;9.916;2022-11-20T04:17:13;7.30;;;4.43;;
17796;SDS011;55596;53.554;9.916;2022-11-20T04:19:40;5.47;;;4.30;;
17796;SDS011;55596;53.554;9.916;2022-11-20T04:22:08;5.40;;;4.07;;
17796;SDS011;55596;53.554;9.916;2022-11-20T04:24:36;5.97;;;4.43;;
17796;SDS011;55596;53.554;9.916;2022-11-20T04:27:03;4.97;;;4.10;;
17796;SDS011;55596;53.554;9.916;2022-11-20T04:29:30;8.53;;;4.20;;
17796;SDS011;55596;53.554;9.916;2022-11-20T04:31:57;6.67;;;4.40;;
17796;SDS011;55596;53.554;9.916;2022-11-20T04:34:24;6.50;;;4.70;;
17796;SDS011;55596;53.554;9.916;2022-11-20T04:36:51;7.23;;;4.47;;
17796;SDS011;55596;53.554;9.916;2022-11-20T04:39:19;8.70;;;4.23;;
17796;SDS011;55596;53.554;9.916;2022-11-20T04:41:46;6.10;;;4.03;;
17796;SDS011;55596;53.554;9.916;2022-11-20T04:44:33;5.67;;;4.00;;
17796;SDS011;55596;53.554;9.916;2022-11-20T04:47:00;7.37;;;3.60;;
17796;SDS011;55596;53.554;9.916;2022-11-20T04:49:27;5.40;;;4.20;;
17796;SDS011;55596;53.554;9.916;2022-11-20T04:51:54;10.13;;;4.17;;
17796;SDS011;55596;53.554;9.916;2022-11-20T04:54:23;4.73;;;4.07;;
17796;SDS011;55596;53.554;9.916;2022-11-20T04:56:50;5.70;;;4.23;;
17796;SDS011;55596;53.554;9.916;2022-11-20T04:59:17;8.03;;;4.60;;
17796;SDS011;55596;53.554;9.916;2022-11-20T05:01:44;5.03;;;4.20;;
17796;SDS011;55596;53.554;9.916;2022-11-20T05:04:11;7.33;;;4.30;;
17796;SDS011;55596;53.554;9.916;2022-11-20T05:06:38;6.43;;;5.15;;
17796;SDS011;55596;53.554;9.916;2022-11-20T05:09:05;5.77;;;4.57;;
17796;SDS011;55596;53.554;9.916;2022-11-20T05:11:33;6.60;;;4.37;;
17796;SDS011;55596;53.554;9.916;2022-11-20T05:14:00;9.20;;;4.63;;
17796;SDS011;55596;53.554;9.916;2022-11-20T05:16:27;8.00;;;4.50;;
17796;SDS011;55596;53.554;9.916;2022-11-20T05:18:55;6.20;;;4.27;;
17796;SDS011;55596;53.554;9.916;2022-11-20T05:21:22;6.57;;;4.73;;
17796;SDS011;55596;53.554;9.916;2022-11-20T05:23:49;4.83;;;4.33;;
17796;SDS011;55596;53.554;9.916;2022-11-20T05:26:16;5.37;;;4.47;;
17796;SDS011;55596;53.554;9.916;2022-11-20T05:28:46;5.83;;;4.77;;
17796;SDS011;55596;53.554;9.916;2022-11-20T05:31:14;7.33;;;4.50;;
17796;SDS011;55596;53.554;9.916;2022-11-20T05:33:42;7.93;;;5.27;;
17796;SDS011;55596;53.554;9.916;2022-11-20T05:36:11;9.40;;;4.87;;
17796;SDS011;55596;53.554;9.916;2022-11-20T05:38:38;6.97;;;5.10;;
17796;SDS011;55596;53.554;9.916;2022-11-20T05:41:06;7.50;;;5.50;;
17796;SDS011;55596;53.554;9.916;2022-11-20T05:43:34;7.37;;;5.50;;
17796;SDS011;55596;53.554;9.916;2022-11-20T05:46:03;7.43;;;5.03;;
17796;SDS011;55596;53.554;9.916;2022-11-20T05:48:31;9.63;;;5.00;;
17796;SDS011;55596;53.554;9.916;2022-11-20T05:50:59;8.37;;;6.10;;
17796;SDS011;55596;53.554;9.916;2022-11-20T05:53:26;11.47;;;5.93;;
17796;SDS011;55596;53.554;9.916;2022-11-20T05:55:56;10.63;;;6.03;;
17796;SDS011;55596;53.554;9.916;2022-11-20T05:58:24;7.37;;;5.83;;
17796;SDS011;55596;53.554;9.916;2022-11-20T06:00:51;9.67;;;5.87;;
17796;SDS011;55596;53.554;9.916;2022-11-20T06:03:19;10.53;;;6.23;;
17796;SDS011;55596;53.554;9.916;2022-11-20T06:05:46;9.77;;;6.83;;
17796;SDS011;55596;53.554;9.916;2022-11-20T06:08:13;8.87;;;6.90;;
17796;SDS011;55596;53.554;9.916;2022-11-20T06:10:40;14.50;;;7.73;;
17796;SDS011;55596;53.554;9.916;2022-11-20T06:13:07;9.53;;;6.97;;
17796;SDS011;55596;53.554;9.916;2022-11-20T06:15:34;11.63;;;7.63;;
17796;SDS011;55596;53.554;9.916;2022-11-20T06:18:01;12.07;;;7.20;;
17796;SDS011;55596;53.554;9.916;2022-11-20T06:20:29;11.87;;;7.93;;
17796;SDS011;55596;53.554;9.916;2022-11-20T06:22:56;9.50;;;7.27;;
17796;SDS011;55596;53.554;9.916;2022-11-20T06:25:23;10.53;;;7.43;;
17796;SDS011;55596;53.554;9.916;2022-11-20T06:27:50;11.70;;;6.50;;
17796;SDS011;55596;53.554;9.916;2022-11-20T06:30:17;10.93;;;6.10;;
17796;SDS011;55596;53.554;9.916;2022-11-20T06:32:44;10.93;;;6.53;;
17796;SDS011;55596;53.554;9.916;2022-11-20T06:35:11;9.40;;;5.90;;
17796;SDS011;55596;53.554;9.916;2022-11-20T06:37:40;9.20;;;6.10;;
17796;SDS011;55596;53.554;9.916;2022-11-20T06:40:07;8.63;;;6.20;;
17796;SDS011;55596;53.554;9.916;2022-11-20T06:42:35;9.57;;;6.20;;
17796;SDS011;55596;53.554;9.916;2022-11-20T06:45:02;7.47;;;5.60;;
17796;SDS011;55596;53.554;9.916;2022-11-20T06:47:29;11.93;;;5.60;;
17796;SDS011;55596;53.554;9.916;2022-11-20T06:49:56;7.30;;;5.57;;
17796;SDS011;55596;53.554;9.916;2022-11-20T06:52:23;9.73;;;5.70;;
17796;SDS011;55596;53.554;9.916;2022-11-20T06:54:51;7.87;;;5.60;;
17796;SDS011;55596;53.554;9.916;2022-11-20T06:57:18;7.47;;;5.73;;
17796;SDS011;55596;53.554;9.916;2022-11-20T06:59:45;7.23;;;5.70;;
17796;SDS011;55596;53.554;9.916;2022-11-20T07:02:12;8.70;;;5.30;;
17796;SDS011;55596;53.554;9.916;2022-11-20T07:04:39;6.90;;;4.93;;
17796;SDS011;55596;53.554;9.916;2022-11-20T07:07:05;9.13;;;6.17;;
17796;SDS011;55596;53.554;9.916;2022-11-20T07:09:32;10.07;;;5.73;;
17796;SDS011;55596;53.554;9.916;2022-11-20T07:12:01;8.50;;;5.87;;
17796;SDS011;55596;53.554;9.916;2022-11-20T07:14:27;7.70;;;6.47;;
17796;SDS011;55596;53.554;9.916;2022-11-20T07:16:54;8.87;;;7.10;;
17796;SDS011;55596;53.554;9.916;2022-11-20T07:19:21;10.57;;;8.50;;
17796;SDS011;55596;53.554;9.916;2022-11-20T07:21:48;11.33;;;7.80;;
17796;SDS011;55596;53.554;9.916;2022-11-20T07:24:15;9.10;;;7.80;;
17796;SDS011;55596;53.554;9.916;2022-11-20T07:26:42;13.53;;;8.30;;
17796;SDS011;55596;53.554;9.916;2022-11-20T07:29:13;13.33;;;8.57;;
17796;SDS011;55596;53.554;9.916;2022-11-20T07:31:40;12.67;;;8.87;;
17796;SDS011;55596;53.554;9.916;2022-11-20T07:34:06;11.47;;;9.13;;
17796;SDS011;55596;53.554;9.916;2022-11-20T07:36:33;13.17;;;9.60;;
17796;SDS011;55596;53.554;9.916;2022-11-20T07:39:00;10.47;;;8.90;;
17796;SDS011;55596;53.554;9.916;2022-11-20T07:41:27;15.27;;;9.80;;
17796;SDS011;55596;53.554;9.916;2022-11-20T07:43:54;11.10;;;8.60;;
17796;SDS011;55596;53.554;9.916;2022-11-20T07:46:22;10.30;;;7.97;;
17796;SDS011;55596;53.554;9.916;2022-11-20T07:48:49;11.87;;;7.57;;
17796;SDS011;55596;53.554;9.916;2022-11-20T07:51:17;9.50;;;6.73;;
17796;SDS011;55596;53.554;9.916;2022-11-20T07:53:43;12.10;;;7.37;;
17796;SDS011;55596;53.554;9.916;2022-11-20T07:56:10;11.17;;;8.53;;
17796;SDS011;55596;53.554;9.916;2022-11-20T07:58:39;9.97;;;7.23;;
17796;SDS011;55596;53.554;9.916;2022-11-20T08:01:06;9.70;;;6.70;;
17796;SDS011;55596;53.554;9.916;2022-11-20T08:03:35;8.83;;;6.47;;
17796;SDS011;55596;53.554;9.916;2022-11-20T08:06:03;9.37;;;6.10;;
17796;SDS011;55596;53.554;9.916;2022-11-20T08:08:30;8.07;;;5.87;;
17796;SDS011;55596;53.554;9.916;2022-11-20T08:10:57;7.90;;;5.07;;
17796;SDS011;55596;53.554;9.916;2022-11-20T08:13:46;9.40;;;5.57;;
17796;SDS011;55596;53.554;9.916;2022-11-20T08:16:30;8.23;;;4.97;;
17796;SDS011;55596;53.554;9.916;2022-11-20T08:18:58;7.07;;;5.23;;
17796;SDS011;55596;53.554;9.916;2022-11-20T08:21:25;6.83;;;5.37;;
17796;SDS011;55596;53.554;9.916;2022-11-20T08:23:52;6.93;;;5.53;;
17796;SDS011;55596;53.554;9.916;2022-11-20T08:26:20;6.93;;;4.87;;
17796;SDS011;55596;53.554;9.916;2022-11-20T08:28:47;6.10;;;4.00;;
17796;SDS011;55596;53.554;9.916;2022-11-20T08:31:14;4.93;;;4.23;;
17796;SDS011;55596;53.554;9.916;2022-11-20T08:33:41;6.80;;;4.73;;
17796;SDS011;55596;53.554;9.916;2022-11-20T08:36:09;8.00;;;4.00;;
17796;SDS011;55596;53.554;9.916;2022-11-20T08:38:36;6.90;;;3.93;;
17796;SDS011;55596;53.554;9.916;2022-11-20T08:41:04;5.40;;;3.90;;
17796;SDS011;55596;53.554;9.916;2022-11-20T08:43:49;4.63;;;3.53;;
17796;SDS011;55596;53.554;9.916;2022-11-20T08:46:16;5.00;;;3.70;;
17796;SDS011;55596;53.554;9.916;2022-11-20T08:48:43;4.83;;;3.50;;
17796;SDS011;55596;53.554;9.916;2022-11-20T08:51:12;4.57;;;3.53;;
17796;SDS011;55596;53.554;9.916;2022-11-20T08:53:40;4.10;;;3.13;;
17796;SDS011;55596;53.554;9.916;2022-11-20T08:56:07;3.83;;;3.43;;
17796;SDS011;55596;53.554;9.916;2022-11-20T08:58:35;4.63;;;3.30;;
17796;SDS011;55596;53.554;9.916;2022-11-20T09:01:02;3.00;;;2.70;;
17796;SDS011;55596;53.554;9.916;2022-11-20T09:03:30;3.27;;;2.93;;
17796;SDS011;55596;53.554;9.916;2022-11-20T09:05:57;6.73;;;3.30;;
17796;SDS011;55596;53.554;9.916;2022-11-20T09:08:26;4.47;;;2.73;;
17796;SDS011;55596;53.554;9.916;2022-11-20T09:10:54;3.67;;;2.63;;
17796;SDS011;55596;53.554;9.916;2022-11-20T09:13:23;3.30;;;2.57;;
17796;SDS011;55596;53.554;9.916;2022-11-20T09:15:54;3.37;;;2.60;;
17796;SDS011;55596;53.554;9.916;2022-11-20T09:18:23;4.70;;;2.43;;
17796;SDS011;55596;53.554;9.916;2022-11-20T09:20:51;2.83;;;2.30;;
17796;SDS011;55596;53.554;9.916;2022-11-20T09:23:18;3.10;;;2.63;;
17796;SDS011;55596;53.554;9.916;2022-11-20T09:25:46;3.03;;;2.50;;
17796;SDS011;55596;53.554;9.916;2022-11-20T09:28:13;3.37;;;2.10;;
17796;SDS011;55596;53.554;9.916;2022-11-20T09:30:41;4.97;;;2.33;;
17796;SDS011;55596;53.554;9.916;2022-11-20T09:33:08;3.37;;;2.43;;
17796;SDS011;55596;53.554;9.916;2022-11-20T09:35:35;3.03;;;2.27;;
17796;SDS011;55596;53.554;9.916;2022-11-20T09:38:05;2.50;;;2.13;;
17796;SDS011;55596;53.554;9.916;2022-11-20T09:40:33;2.47;;;1.70;;
17796;SDS011;55596;53.554;9.916;2022-11-20T09:43:03;2.40;;;1.77;;
17796;SDS011;55596;53.554;9.916;2022-11-20T09:45:39;2.10;;;1.90;;
17796;SDS011;55596;53.554;9.916;2022-11-20T09:48:21;2.27;;;1.90;;
17796;SDS011;55596;53.554;9.916;2022-11-20T09:51:07;2.93;;;2.47;;
17796;SDS011;55596;53.554;9.916;2022-11-20T09:53:46;2.90;;;2.30;;
17796;SDS011;55596;53.554;9.916;2022-11-20T09:56:21;3.23;;;2.47;;
17796;SDS011;55596;53.554;9.916;2022-11-20T09:58:51;2.33;;;2.10;;
17796;SDS011;55596;53.554;9.916;2022-11-20T10:01:21;3.87;;;2.23;;
17796;SDS011;55596;53.554;9.916;2022-11-20T10:03:54;2.17;;;1.80;;
17796;SDS011;55596;53.554;9.916;2022-11-20T10:06:28;2.10;;;1.90;;
17796;SDS011;55596;53.554;9.916;2022-11-20T10:08:59;4.10;;;2.10;;
17796;SDS011;55596;53.554;9.916;2022-11-20T10:11:31;2.97;;;1.80;;
17796;SDS011;55596;53.554;9.916;2022-11-20T10:14:10;2.83;;;2.10;;
17796;SDS011;55596;53.554;9.916;2022-11-20T10:16:47;2.27;;;1.90;;
17796;SDS011;55596;53.554;9.916;2022-11-20T10:19:27;5.00;;;2.20;;
17796;SDS011;55596;53.554;9.916;2022-11-20T10:22:14;2.47;;;2.00;;
17796;SDS011;55596;53.554;9.916;2022-11-20T10:24:53;1.97;;;1.67;;
17796;SDS011;55596;53.554;9.916;2022-11-20T10:30:26;2.07;;;1.87;;
17796;SDS011;55596;53.554;9.916;2022-11-20T10:32:56;2.17;;;1.90;;
17796;SDS011;55596;53.554;9.916;2022-11-20T10:35:32;2.10;;;1.90;;
17796;SDS011;55596;53.554;9.916;2022-11-20T10:38:05;2.43;;;2.10;;
17796;SDS011;55596;53.554;9.916;2022-11-20T10:40:39;3.70;;;2.10;;
17796;SDS011;55596;53.554;9.916;2022-11-20T10:43:10;2.53;;;1.90;;
17796;SDS011;55596;53.554;9.916;2022-11-20T10:45:45;2.17;;;1.90;;
17796;SDS011;55596;53.554;9.916;2022-11-20T10:48:16;2.10;;;1.90;;
17796;SDS011;55596;53.554;9.916;2022-11-20T10:50:55;2.37;;;1.83;;
17796;SDS011;55596;53.554;9.916;2022-11-20T10:53:37;2.20;;;2.00;;
17796;SDS011;55596;53.554;9.916;2022-11-20T10:56:14;3.60;;;1.93;;
17796;SDS011;55596;53.554;9.916;2022-11-20T10:58:45;4.50;;;2.13;;
17796;SDS011;55596;53.554;9.916;2022-11-20T11:01:22;4.13;;;2.27;;
17796;SDS011;55596;53.554;9.916;2022-11-20T11:03:49;2.50;;;2.27;;
17796;SDS011;55596;53.554;9.916;2022-11-20T11:06:20;3.23;;;2.10;;
17796;SDS011;55596;53.554;9.916;2022-11-20T11:08:53;2.50;;;1.77;;
17796;SDS011;55596;53.554;9.916;2022-11-20T11:11:25;2.43;;;2.10;;
17796;SDS011;55596;53.554;9.916;2022-11-20T11:14:03;2.63;;;2.07;;
17796;SDS011;55596;53.554;9.916;2022-11-20T11:16:32;3.03;;;2.10;;
17796;SDS011;55596;53.554;9.916;2022-11-20T11:19:03;2.67;;;2.20;;
17796;SDS011;55596;53.554;9.916;2022-11-20T11:21:31;2.50;;;2.23;;
17796;SDS011;55596;53.554;9.916;2022-11-20T11:23:59;2.90;;;2.30;;
17796;SDS011;55596;53.554;9.916;2022-11-20T11:26:27;2.70;;;2.20;;
17796;SDS011;55596;53.554;9.916;2022-11-20T11:28:55;3.20;;;2.40;;
17796;SDS011;55596;53.554;9.916;2022-11-20T11:31:23;2.87;;;2.10;;
17796;SDS011;55596;53.554;9.916;2022-11-20T11:34:02;3.65;;;2.60;;
17796;SDS011;55596;53.554;9.916;2022-11-20T11:36:30;2.30;;;2.10;;
17796;SDS011;55596;53.554;9.916;2022-11-20T11:38:59;2.93;;;2.33;;
17796;SDS011;55596;53.554;9.916;2022-11-20T11:41:27;5.30;;;2.10;;
17796;SDS011;55596;53.554;9.916;2022-11-20T11:44:00;2.30;;;2.10;;
17796;SDS011;55596;53.554;9.916;2022-11-20T11:46:56;2.17;;;1.97;;
17796;SDS011;55596;53.554;9.916;2022-11-20T11:49:26;2.97;;;2.00;;
17796;SDS011;55596;53.554;9.916;2022-11-20T11:52:01;2.40;;;2.20;;
17796;SDS011;55596;53.554;9.916;2022-11-20T11:54:34;3.20;;;2.00;;
17796;SDS011;55596;53.554;9.916;2022-11-20T11:57:09;3.13;;;2.40;;
17796;SDS011;55596;53.554;9.916;2022-11-20T11:59:44;3.93;;;2.50;;
17796;SDS011;55596;53.554;9.916;2022-11-20T12:02:25;3.57;;;2.20;;
17796;SDS011;55596;53.554;9.916;2022-11-20T12:04:59;5.60;;;2.07;;
17796;SDS011;55596;53.554;9.916;2022-11-20T12:07:37;2.17;;;1.97;;
17796;SDS011;55596;53.554;9.916;2022-11-20T12:10:12;2.87;;;2.20;;
17796;SDS011;55596;53.554;9.916;2022-11-20T12:12:44;1.57;;;1.20;;
17796;SDS011;55596;53.554;9.916;2022-11-20T12:15:16;4.87;;;1.80;;
17796;SDS011;55596;53.554;9.916;2022-11-20T12:17:55;1.70;;;1.50;;
17796;SDS011;55596;53.554;9.916;2022-11-20T12:20:24;9.23;;;2.28;;
17796;SDS011;55596;53.554;9.916;2022-11-20T12:22:56;1.50;;;1.40;;
17796;SDS011;55596;53.554;9.916;2022-11-20T12:25:32;1.30;;;1.20;;
17796;SDS011;55596;53.554;9.916;2022-11-20T12:31:05;3.90;;;1.63;;
17796;SDS011;55596;53.554;9.916;2022-11-20T12:34:00;2.03;;;1.67;;
17796;SDS011;55596;53.554;9.916;2022-11-20T12:36:52;1.80;;;1.47;;
17796;SDS011;55596;53.554;9.916;2022-11-20T12:39:29;3.00;;;1.50;;
17796;SDS011;55596;53.554;9.916;2022-11-20T12:42:04;3.10;;;2.00;;
17796;SDS011;55596;53.554;9.916;2022-11-20T12:45:06;1.80;;;1.60;;
17796;SDS011;55596;53.554;9.916;2022-11-20T12:47:49;2.67;;;2.17;;
17796;SDS011;55596;53.554;9.916;2022-11-20T12:50:30;1.83;;;1.50;;
17796;SDS011;55596;53.554;9.916;2022-11-20T12:53:07;3.67;;;2.37;;
17796;SDS011;55596;53.554;9.916;2022-11-20T12:55:46;5.07;;;3.03;;
17796;SDS011;55596;53.554;9.916;2022-11-20T12:58:22;5.93;;;2.57;;
17796;SDS011;55596;53.554;9.916;2022-11-20T13:00:55;4.23;;;1.80;;
17796;SDS011;55596;53.554;9.916;2022-11-20T13:03:34;3.93;;;1.90;;
17796;SDS011;55596;53.554;9.916;2022-11-20T13:06:10;5.87;;;1.90;;
17796;SDS011;55596;53.554;9.916;2022-11-20T13:08:43;3.83;;;2.20;;
17796;SDS011;55596;53.554;9.916;2022-11-20T13:11:17;4.03;;;2.50;;
17796;SDS011;55596;53.554;9.916;2022-11-20T13:13:56;3.47;;;2.30;;
17796;SDS011;55596;53.554;9.916;2022-11-20T13:16:36;2.83;;;2.03;;
17796;SDS011;55596;53.554;9.916;2022-11-20T13:19:09;2.63;;;1.70;;
17796;SDS011;55596;53.554;9.916;2022-11-20T13:21:39;4.57;;;2.50;;
17796;SDS011;55596;53.554;9.916;2022-11-20T13:24:20;3.43;;;2.50;;
17796;SDS011;55596;53.554;9.916;2022-11-20T13:26:59;3.13;;;2.20;;
17796;SDS011;55596;53.554;9.916;2022-11-20T13:29:27;3.07;;;2.33;;
17796;SDS011;55596;53.554;9.916;2022-11-20T13:32:02;4.40;;;2.27;;
17796;SDS011;55596;53.554;9.916;2022-11-20T13:34:31;10.50;;;3.10;;
17796;SDS011;55596;53.554;9.916;2022-11-20T13:36:58;3.67;;;2.40;;
17796;SDS011;55596;53.554;9.916;2022-11-20T13:39:30;3.10;;;2.33;;
17796;SDS011;55596;53.554;9.916;2022-11-20T13:41:59;4.80;;;2.40;;
17796;SDS011;55596;53.554;9.916;2022-11-20T13:44:29;5.13;;;2.00;;
17796;SDS011;55596;53.554;9.916;2022-11-20T13:47:00;3.07;;;1.90;;
17796;SDS011;55596;53.554;9.916;2022-11-20T13:49:29;5.00;;;1.80;;
17796;SDS011;55596;53.554;9.916;2022-11-20T13:52:02;2.27;;;1.90;;
17796;SDS011;55596;53.554;9.916;2022-11-20T13:54:54;1.60;;;1.43;;
17796;SDS011;55596;53.554;9.916;2022-11-20T13:57:38;2.27;;;1.80;;
17796;SDS011;55596;53.554;9.916;2022-11-20T14:00:24;10.23;;;2.47;;
17796;SDS011;55596;53.554;9.916;2022-11-20T14:02:57;2.17;;;1.97;;
17796;SDS011;55596;53.554;9.916;2022-11-20T14:05:34;5.73;;;1.80;;
17796;SDS011;55596;53.554;9.916;2022-11-20T14:08:03;6.20;;;2.70;;
17796;SDS011;55596;53.554;9.916;2022-11-20T14:10:34;2.13;;;1.90;;
17796;SDS011;55596;53.554;9.916;2022-11-20T14:13:09;3.47;;;2.03;;
17796;SDS011;55596;53.554;9.916;2022-11-20T14:15:41;5.93;;;2.10;;
17796;SDS011;55596;53.554;9.916;2022-11-20T14:18:12;2.77;;;1.80;;
17796;SDS011;55596;53.554;9.916;2022-11-20T14:20:40;5.33;;;2.50;;
17796;SDS011;55596;53.554;9.916;2022-11-20T14:23:09;5.83;;;2.37;;
17796;SDS011;55596;53.554;9.916;2022-11-20T14:25:38;3.70;;;1.90;;
17796;SDS011;55596;53.554;9.916;2022-11-20T14:28:10;6.03;;;1.80;;
17796;SDS011;55596;53.554;9.916;2022-11-20T14:30:45;3.63;;;1.57;;
17796;SDS011;55596;53.554;9.916;2022-11-20T14:33:14;3.67;;;1.50;;
17796;SDS011;55596;53.554;9.916;2022-11-20T14:35:43;2.43;;;1.93;;
17796;SDS011;55596;53.554;9.916;2022-11-20T14:38:12;2.10;;;1.90;;
17796;SDS011;55596;53.554;9.916;2022-11-20T14:40:43;3.93;;;1.80;;
17796;SDS011;55596;53.554;9.916;2022-11-20T14:43:18;3.10;;;2.10;;
17796;SDS011;55596;53.554;9.916;2022-11-20T14:45:48;2.93;;;1.90;;
17796;SDS011;55596;53.554;9.916;2022-11-20T14:48:21;3.70;;;2.07;;
17796;SDS011;55596;53.554;9.916;2022-11-20T14:50:52;5.13;;;1.97;;
17796;SDS011;55596;53.554;9.916;2022-11-20T14:53:21;5.53;;;2.33;;
17796;SDS011;55596;53.554;9.916;2022-11-20T14:55:55;5.93;;;2.47;;
17796;SDS011;55596;53.554;9.916;2022-11-20T14:58:23;3.63;;;2.20;;
17796;SDS011;55596;53.554;9.916;2022-11-20T15:00:55;20.70;;;3.10;;
17796;SDS011;55596;53.554;9.916;2022-11-20T15:03:30;3.73;;;2.50;;
17796;SDS011;55596;53.554;9.916;2022-11-20T15:05:57;3.13;;;2.20;;
17796;SDS011;55596;53.554;9.916;2022-11-20T15:08:25;2.30;;;2.00;;
17796;SDS011;55596;53.554;9.916;2022-11-20T15:10:52;4.63;;;2.27;;